sensor_id;sensor_type;location;lat;lon;timestamp;P1;P2;P0
53698;PMS7003;68408;53.952;27.612;2023-04-21T00:01:03;4.9;3.7;2.8
53698;PMS7003;68408;53.952;27.612;2023-04-21T00:06:43;5;4.1;3.3
53698;PMS7003;68408;53.952;27.612;2023-04-21T00:11:37;4.1;3;2.7
53698;PMS7003;68408;53.952;27.612;2023-04-21T00:16:15;4.6;3.3;2.9
53698;PMS7003;68408;53.952;27.612;2023-04-21T00:21:19;6.5;5;3.9
53698;PMS7003;68408;53.952;27.612;2023-04-21T00:26:43;5.2;4.3;3.8
53698;PMS7003;68408;53.952;27.612;2023-04-21T00:31:03;4.9;4.1;3.4
53698;PMS7003;68408;53.952;27.612;2023-04-21T00:36:33;5.9;4.5;3.7
53698;PMS7003;68408;53.952;27.612;2023-04-21T00:41:43;6.8;4.7;3.9
53698;PMS7003;68408;53.952;27.612;2023-04-21T00:46:03;6.1;4.6;3.9
53698;PMS7003;68408;53.952;27.612;2023-04-21T00:51:03;3.9;3.2;2.7
53698;PMS7003;68408;53.952;27.612;2023-04-21T00:56:03;5.4;4.2;3.5
53698;PMS7003;68408;53.952;27.612;2023-04-21T01:01:31;4.7;3.8;3.1
53698;PMS7003;68408;53.952;27.612;2023-04-21T01:06:35;4.9;3.9;3.3
53698;PMS7003;68408;53.952;27.612;2023-04-21T01:11:27;4.1;3.7;3.1
53698;PMS7003;68408;53.952;27.612;2023-04-21T01:16:14;4.8;3.7;2.8
53698;PMS7003;68408;53.952;27.612;2023-04-21T01:21:36;4.9;4.4;3.7
53698;PMS7003;68408;53.952;27.612;2023-04-21T01:26:41;5.2;4.3;3.4
53698;PMS7003;68408;53.952;27.612;2023-04-21T01:31:15;4.6;4;3.3
53698;PMS7003;68408;53.952;27.612;2023-04-21T01:36:03;4.9;4.1;3.5
53698;PMS7003;68408;53.952;27.612;2023-04-21T01:41:15;4.6;4;3.3
53698;PMS7003;68408;53.952;27.612;2023-04-21T01:46:33;5.1;3.9;3.3
53698;PMS7003;68408;53.952;27.612;2023-04-21T01:51:23;4.3;3.2;2.7
53698;PMS7003;68408;53.952;27.612;2023-04-21T01:56:07;4.5;3.7;3
53698;PMS7003;68408;53.952;27.612;2023-04-21T02:01:41;5.4;4.6;3.7
53698;PMS7003;68408;53.952;27.612;2023-04-21T02:06:27;4.6;3.6;3.1
53698;PMS7003;68408;53.952;27.612;2023-04-21T02:11:03;5.6;4.5;3.7
53698;PMS7003;68408;53.952;27.612;2023-04-21T02:16:17;4.9;3.9;3.2
53698;PMS7003;68408;53.952;27.612;2023-04-21T02:21:43;5.1;4.4;3.6
53698;PMS7003;68408;53.952;27.612;2023-04-21T02:26:25;5.9;4.9;3.9
53698;PMS7003;68408;53.952;27.612;2023-04-21T02:31:43;5.4;4;3.4
53698;PMS7003;68408;53.952;27.612;2023-04-21T02:36:41;5.9;4.7;3.9
53698;PMS7003;68408;53.952;27.612;2023-04-21T02:41:15;4.9;4.3;3.3
53698;PMS7003;68408;53.952;27.612;2023-04-21T02:46:11;7.2;5.3;4.1
53698;PMS7003;68408;53.952;27.612;2023-04-21T02:51:33;5.3;4.2;3.4
53698;PMS7003;68408;53.952;27.612;2023-04-21T02:56:29;5.3;3.8;3.3
53698;PMS7003;68408;53.952;27.612;2023-04-21T03:01:37;6.4;4.8;3.9
53698;PMS7003;68408;53.952;27.612;2023-04-21T03:06:15;5.4;4.4;3.6
53698;PMS7003;68408;53.952;27.612;2023-04-21T03:11:43;6.7;5;3.8
53698;PMS7003;68408;53.952;27.612;2023-04-21T03:16:29;5;3.7;3
53698;PMS7003;68408;53.952;27.612;2023-04-21T03:21:15;6;4.6;3.8
53698;PMS7003;68408;53.952;27.612;2023-04-21T03:26:19;6.4;5.3;4.3
53698;PMS7003;68408;53.952;27.612;2023-04-21T03:31:43;4.7;3.9;3.2
53698;PMS7003;68408;53.952;27.612;2023-04-21T03:36:43;5.5;3.8;2.9
53698;PMS7003;68408;53.952;27.612;2023-04-21T03:41:33;5.8;4.6;3.6
53698;PMS7003;68408;53.952;27.612;2023-04-21T03:46:31;6.4;5.1;4
53698;PMS7003;68408;53.952;27.612;2023-04-21T03:51:15;5.9;5.1;4
53698;PMS7003;68408;53.952;27.612;2023-04-21T03:56:29;7;5.5;4.3
53698;PMS7003;68408;53.952;27.612;2023-04-21T04:01:15;5.9;5.1;3.9
53698;PMS7003;68408;53.952;27.612;2023-04-21T04:06:15;6.5;5;4
53698;PMS7003;68408;53.952;27.612;2023-04-21T04:11:37;7.1;5.5;4.3
53698;PMS7003;68408;53.952;27.612;2023-04-21T04:16:43;6.4;5.3;4.1
53698;PMS7003;68408;53.952;27.612;2023-04-21T04:21:15;5.5;4.9;4.1
53698;PMS7003;68408;53.952;27.612;2023-04-21T04:26:29;7.6;6.2;4.9
53698;PMS7003;68408;53.952;27.612;2023-04-21T04:31:35;5.9;5;4.2
53698;PMS7003;68408;53.952;27.612;2023-04-21T04:36:29;7.2;5.5;3.9
53698;PMS7003;68408;53.952;27.612;2023-04-21T04:41:03;6.5;5.4;4.1
53698;PMS7003;68408;53.952;27.612;2023-04-21T04:46:35;6.9;5.9;4.7
53698;PMS7003;68408;53.952;27.612;2023-04-21T04:51:45;7;5.6;4.7
53698;PMS7003;68408;53.952;27.612;2023-04-21T04:56:43;8.3;6.3;4.8
53698;PMS7003;68408;53.952;27.612;2023-04-21T05:01:09;6.4;5.4;4.1
53698;PMS7003;68408;53.952;27.612;2023-04-21T05:06:45;6.8;5.9;4.7
53698;PMS7003;68408;53.952;27.612;2023-04-21T05:11:37;7.2;6.4;4.9
53698;PMS7003;68408;53.952;27.612;2023-04-21T05:16:33;7.3;6.7;5.3
53698;PMS7003;68408;53.952;27.612;2023-04-21T05:21:21;7.1;5.2;3.9
53698;PMS7003;68408;53.952;27.612;2023-04-21T05:26:33;6.9;5.8;4.8
53698;PMS7003;68408;53.952;27.612;2023-04-21T05:31:25;7.7;6;5.1
53698;PMS7003;68408;53.952;27.612;2023-04-21T05:36:43;7.5;5.2;3.9
53698;PMS7003;68408;53.952;27.612;2023-04-21T05:41:41;7.8;6.3;4.9
53698;PMS7003;68408;53.952;27.612;2023-04-21T05:46:08;7.5;5.9;4.3
53698;PMS7003;68408;53.952;27.612;2023-04-21T05:51:06;8;5.5;4.5
53698;PMS7003;68408;53.952;27.612;2023-04-21T05:56:23;6.4;5.2;4.3
53698;PMS7003;68408;53.952;27.612;2023-04-21T06:01:29;7.4;4.8;3.9
53698;PMS7003;68408;53.952;27.612;2023-04-21T06:06:35;5.8;4.9;3.9
53698;PMS7003;68408;53.952;27.612;2023-04-21T06:11:43;6.5;5.1;4
53698;PMS7003;68408;53.952;27.612;2023-04-21T06:16:31;5.2;4;3.3
53698;PMS7003;68408;53.952;27.612;2023-04-21T06:21:27;5.9;4.8;3.9
53698;PMS7003;68408;53.952;27.612;2023-04-21T06:26:41;6.3;4.3;3.7
53698;PMS7003;68408;53.952;27.612;2023-04-21T06:31:03;6;4.2;3.5
53698;PMS7003;68408;53.952;27.612;2023-04-21T06:36:27;5.5;4.6;3.9
53698;PMS7003;68408;53.952;27.612;2023-04-21T06:41:13;4.5;3.8;3.3
53698;PMS7003;68408;53.952;27.612;2023-04-21T06:46:33;5.7;4.6;3.9
53698;PMS7003;68408;53.952;27.612;2023-04-21T06:51:21;4.2;3.7;3.2
53698;PMS7003;68408;53.952;27.612;2023-04-21T06:56:11;4.8;3.9;3.1
53698;PMS7003;68408;53.952;27.612;2023-04-21T07:01:43;4.7;3.6;3.1
53698;PMS7003;68408;53.952;27.612;2023-04-21T07:06:03;4.4;3.6;3
53698;PMS7003;68408;53.952;27.612;2023-04-21T07:11:19;4.7;4.1;3.2
53698;PMS7003;68408;53.952;27.612;2023-04-21T07:16:17;3.3;2.6;2
53698;PMS7003;68408;53.952;27.612;2023-04-21T07:21:41;3.8;2.4;1.9
53698;PMS7003;68408;53.952;27.612;2023-04-21T07:26:35;2.9;2.6;2.1
53698;PMS7003;68408;53.952;27.612;2023-04-21T07:31:41;2.6;2;1.5
53698;PMS7003;68408;53.952;27.612;2023-04-21T07:36:41;3;2.6;2.2
53698;PMS7003;68408;53.952;27.612;2023-04-21T07:41:03;4.7;3.5;3
53698;PMS7003;68408;53.952;27.612;2023-04-21T07:46:03;3.6;2.8;2.4
53698;PMS7003;68408;53.952;27.612;2023-04-21T07:51:31;3.3;2.4;2.1
53698;PMS7003;68408;53.952;27.612;2023-04-21T07:56:27;2.5;2.2;1.8
53698;PMS7003;68408;53.952;27.612;2023-04-21T08:01:27;3;2.4;2
53698;PMS7003;68408;53.952;27.612;2023-04-21T08:06:11;2.9;2.3;1.9
53698;PMS7003;68408;53.952;27.612;2023-04-21T08:11:41;2.7;2.4;2
53698;PMS7003;68408;53.952;27.612;2023-04-21T08:16:23;2.3;2.1;1.9
53698;PMS7003;68408;53.952;27.612;2023-04-21T08:21:03;3.3;1.8;1.5
53698;PMS7003;68408;53.952;27.612;2023-04-21T08:26:13;3.1;2.4;2.1
53698;PMS7003;68408;53.952;27.612;2023-04-21T08:31:45;2.3;1.9;1.5
53698;PMS7003;68408;53.952;27.612;2023-04-21T08:36:25;2.7;2;1.8
53698;PMS7003;68408;53.952;27.612;2023-04-21T08:41:33;2.9;2.2;1.9
53698;PMS7003;68408;53.952;27.612;2023-04-21T08:46:33;2.6;2.1;1.8
53698;PMS7003;68408;53.952;27.612;2023-04-21T08:51:31;1.9;1.5;1.3
53698;PMS7003;68408;53.952;27.612;2023-04-21T08:56:31;3;2.3;1.7
53698;PMS7003;68408;53.952;27.612;2023-04-21T09:01:27;3.2;2.3;2
53698;PMS7003;68408;53.952;27.612;2023-04-21T09:06:04;3.4;2;1.7
53698;PMS7003;68408;53.952;27.612;2023-04-21T09:11:39;1.9;1.4;1.2
53698;PMS7003;68408;53.952;27.612;2023-04-21T09:16:29;2.3;2;1.5
53698;PMS7003;68408;53.952;27.612;2023-04-21T09:21:04;3.1;2.3;1.9
53698;PMS7003;68408;53.952;27.612;2023-04-21T09:26:27;2.5;1.8;1.7
53698;PMS7003;68408;53.952;27.612;2023-04-21T09:31:49;2.6;1.7;1.4
53698;PMS7003;68408;53.952;27.612;2023-04-21T09:36:03;2.5;1.9;1.6
53698;PMS7003;68408;53.952;27.612;2023-04-21T09:41:35;1.9;1.2;1.1
53698;PMS7003;68408;53.952;27.612;2023-04-21T09:46:13;2.4;1.4;1.2
53698;PMS7003;68408;53.952;27.612;2023-04-21T09:51:47;2;1.1;1
53698;PMS7003;68408;53.952;27.612;2023-04-21T09:56:25;1.2;0.9;0.8
53698;PMS7003;68408;53.952;27.612;2023-04-21T10:01:09;1.6;1.4;1.2
53698;PMS7003;68408;53.952;27.612;2023-04-21T10:06:49;1.9;1.6;1.2
53698;PMS7003;68408;53.952;27.612;2023-04-21T10:11:27;2.2;1.3;1.1
53698;PMS7003;68408;53.952;27.612;2023-04-21T10:16:23;2.3;1.4;1.1
53698;PMS7003;68408;53.952;27.612;2023-04-21T10:21:45;2.6;1.8;1.4
53698;PMS7003;68408;53.952;27.612;2023-04-21T10:26:51;2.4;1.7;1.5
53698;PMS7003;68408;53.952;27.612;2023-04-21T10:31:15;3.3;2;1.6
53698;PMS7003;68408;53.952;27.612;2023-04-21T10:37:08;2.2;1.5;1.4
53698;PMS7003;68408;53.952;27.612;2023-04-21T10:41:53;1.8;1.6;1.4
53698;PMS7003;68408;53.952;27.612;2023-04-21T10:46:31;2.4;1.6;1.3
53698;PMS7003;68408;53.952;27.612;2023-04-21T10:51:15;2.8;1.7;1.4
53698;PMS7003;68408;53.952;27.612;2023-04-21T10:56:29;0.9;0.7;0.7
53698;PMS7003;68408;53.952;27.612;2023-04-21T11:01:38;1.7;1.2;1
53698;PMS7003;68408;53.952;27.612;2023-04-21T11:06:27;1.4;1.1;0.9
53698;PMS7003;68408;53.952;27.612;2023-04-21T11:11:20;1.8;1.2;1
53698;PMS7003;68408;53.952;27.612;2023-04-21T11:16:49;1.1;0.7;0.6
53698;PMS7003;68408;53.952;27.612;2023-04-21T11:21:28;1.4;0.8;0.7
53698;PMS7003;68408;53.952;27.612;2023-04-21T11:26:03;1.4;0.7;0.5
53698;PMS7003;68408;53.952;27.612;2023-04-21T11:31:47;2.3;1.3;1.1
53698;PMS7003;68408;53.952;27.612;2023-04-21T11:36:49;1.7;1.1;1
53698;PMS7003;68408;53.952;27.612;2023-04-21T11:41:03;1.7;1.1;0.9
53698;PMS7003;68408;53.952;27.612;2023-04-21T11:46:35;1.6;1.2;1
53698;PMS7003;68408;53.952;27.612;2023-04-21T11:51:05;1.4;0.8;0.6
53698;PMS7003;68408;53.952;27.612;2023-04-21T11:56:16;1.1;0.9;0.6
53698;PMS7003;68408;53.952;27.612;2023-04-21T12:01:41;1;0.5;0.3
53698;PMS7003;68408;53.952;27.612;2023-04-21T12:06:27;1.4;0.9;0.8
53698;PMS7003;68408;53.952;27.612;2023-04-21T12:11:03;0.9;0.5;0.5
53698;PMS7003;68408;53.952;27.612;2023-04-21T12:16:05;1.4;0.9;0.6
53698;PMS7003;68408;53.952;27.612;2023-04-21T12:21:51;1.1;0.5;0.2
53698;PMS7003;68408;53.952;27.612;2023-04-21T12:26:13;1;0.6;0.5
53698;PMS7003;68408;53.952;27.612;2023-04-21T12:31:35;1.4;0.8;0.7
53698;PMS7003;68408;53.952;27.612;2023-04-21T12:36:39;1.2;0.7;0.5
53698;PMS7003;68408;53.952;27.612;2023-04-21T12:41:35;0.6;0.6;0.4
53698;PMS7003;68408;53.952;27.612;2023-04-21T12:46:15;0.4;0.1;0.1
53698;PMS7003;68408;53.952;27.612;2023-04-21T12:51:49;1.2;0.8;0.7
53698;PMS7003;68408;53.952;27.612;2023-04-21T12:56:43;2.2;1.6;1.3
53698;PMS7003;68408;53.952;27.612;2023-04-21T13:01:49;1.7;1.1;0.9
53698;PMS7003;68408;53.952;27.612;2023-04-21T13:06:15;0.6;0.5;0.4
53698;PMS7003;68408;53.952;27.612;2023-04-21T13:11:49;0.5;0.3;0.2
53698;PMS7003;68408;53.952;27.612;2023-04-21T13:16:27;0.8;0.6;0.4
53698;PMS7003;68408;53.952;27.612;2023-04-21T13:21:15;0.5;0.4;0.3
53698;PMS7003;68408;53.952;27.612;2023-04-21T13:26:03;0.8;0.4;0.3
53698;PMS7003;68408;53.952;27.612;2023-04-21T13:31:51;1.5;0.5;0.4
53698;PMS7003;68408;53.952;27.612;2023-04-21T13:36:15;0.8;0.5;0.5
53698;PMS7003;68408;53.952;27.612;2023-04-21T13:41:51;1.4;1;0.8
53698;PMS7003;68408;53.952;27.612;2023-04-21T13:46:49;1.9;1.2;1.1
53698;PMS7003;68408;53.952;27.612;2023-04-21T13:51:25;0.7;0.5;0.4
53698;PMS7003;68408;53.952;27.612;2023-04-21T13:56:27;0.9;0.7;0.5
53698;PMS7003;68408;53.952;27.612;2023-04-21T14:01:35;1.3;0.8;0.7
53698;PMS7003;68408;53.952;27.612;2023-04-21T14:06:23;1.6;1;0.9
53698;PMS7003;68408;53.952;27.612;2023-04-21T14:11:41;1.4;1;0.9
53698;PMS7003;68408;53.952;27.612;2023-04-21T14:16:25;1.9;1.5;1.2
53698;PMS7003;68408;53.952;27.612;2023-04-21T14:21:49;2.1;1;0.9
53698;PMS7003;68408;53.952;27.612;2023-04-21T14:26:37;1.8;1.1;0.8
53698;PMS7003;68408;53.952;27.612;2023-04-21T14:31:03;2.2;1.4;1
53698;PMS7003;68408;53.952;27.612;2023-04-21T14:36:35;1.7;1.6;1.3
53698;PMS7003;68408;53.952;27.612;2023-04-21T14:41:51;2.2;1.5;1.1
53698;PMS7003;68408;53.952;27.612;2023-04-21T14:46:27;1.8;1.2;0.9
53698;PMS7003;68408;53.952;27.612;2023-04-21T14:51:37;1.7;1.2;1
53698;PMS7003;68408;53.952;27.612;2023-04-21T14:56:35;3;1.8;1.5
53698;PMS7003;68408;53.952;27.612;2023-04-21T15:01:27;1.6;1.4;1.2
53698;PMS7003;68408;53.952;27.612;2023-04-21T15:06:25;2.9;1.9;1.5
53698;PMS7003;68408;53.952;27.612;2023-04-21T15:11:03;2.1;1.8;1.6
53698;PMS7003;68408;53.952;27.612;2023-04-21T15:16:03;2.4;2.2;1.9
53698;PMS7003;68408;53.952;27.612;2023-04-21T15:21:41;1.9;1;0.8
53698;PMS7003;68408;53.952;27.612;2023-04-21T15:26:51;1.5;0.8;0.7
53698;PMS7003;68408;53.952;27.612;2023-04-21T15:31:03;1.4;1;0.9
53698;PMS7003;68408;53.952;27.612;2023-04-21T15:36:37;1.1;0.6;0.6
53698;PMS7003;68408;53.952;27.612;2023-04-21T15:41:39;1.4;0.7;0.6
53698;PMS7003;68408;53.952;27.612;2023-04-21T15:46:33;1.9;1;0.9
53698;PMS7003;68408;53.952;27.612;2023-04-21T15:51:03;1.8;1.1;0.9
53698;PMS7003;68408;53.952;27.612;2023-04-21T15:56:35;2.3;1.6;1.4
53698;PMS7003;68408;53.952;27.612;2023-04-21T16:01:50;2.7;1.8;1.6
53698;PMS7003;68408;53.952;27.612;2023-04-21T16:06:49;2.4;2.2;1.7
53698;PMS7003;68408;53.952;27.612;2023-04-21T16:11:03;2.9;2.2;1.8
53698;PMS7003;68408;53.952;27.612;2023-04-21T16:16:49;2.4;2;1.8
53698;PMS7003;68408;53.952;27.612;2023-04-21T16:21:41;3.8;3;2.6
53698;PMS7003;68408;53.952;27.612;2023-04-21T16:26:03;3.9;2.5;2.3
53698;PMS7003;68408;53.952;27.612;2023-04-21T16:31:03;3.7;3.1;2.5
53698;PMS7003;68408;53.952;27.612;2023-04-21T16:36:41;3.5;2.7;2.3
53698;PMS7003;68408;53.952;27.612;2023-04-21T16:41:03;4.7;3.2;2.6
53698;PMS7003;68408;53.952;27.612;2023-04-21T16:46:35;5.8;4.8;3.9
53698;PMS7003;68408;53.952;27.612;2023-04-21T16:51:49;5.9;4.7;3.8
53698;PMS7003;68408;53.952;27.612;2023-04-21T16:56:03;6.6;5;4
53698;PMS7003;68408;53.952;27.612;2023-04-21T17:01:27;6.1;4.9;4.3
53698;PMS7003;68408;53.952;27.612;2023-04-21T17:06:15;6.8;5.6;4.6
53698;PMS7003;68408;53.952;27.612;2023-04-21T17:11:03;4.4;3.7;3.1
53698;PMS7003;68408;53.952;27.612;2023-04-21T17:16:41;4.4;3.5;2.9
53698;PMS7003;68408;53.952;27.612;2023-04-21T17:21:27;3.5;2.6;2.1
53698;PMS7003;68408;53.952;27.612;2023-04-21T17:26:03;3.9;3.3;2.7
53698;PMS7003;68408;53.952;27.612;2023-04-21T17:31:37;3.2;2.6;2.2
53698;PMS7003;68408;53.952;27.612;2023-04-21T17:36:51;3.3;2.9;2.5
53698;PMS7003;68408;53.952;27.612;2023-04-21T17:41:11;3;2.4;2.1
53698;PMS7003;68408;53.952;27.612;2023-04-21T17:46:49;3.1;2.4;2
53698;PMS7003;68408;53.952;27.612;2023-04-21T17:51:03;3.5;2.8;2.3
53698;PMS7003;68408;53.952;27.612;2023-04-21T17:56:35;3.8;2.9;2.4
53698;PMS7003;68408;53.952;27.612;2023-04-21T18:01:23;2.8;2.7;2.3
53698;PMS7003;68408;53.952;27.612;2023-04-21T18:06:03;3.9;2.9;2.6
53698;PMS7003;68408;53.952;27.612;2023-04-21T18:11:35;3.7;3;2.6
53698;PMS7003;68408;53.952;27.612;2023-04-21T18:16:27;4;3.3;2.7
53698;PMS7003;68408;53.952;27.612;2023-04-21T18:21:03;5.3;4.1;3.4
53698;PMS7003;68408;53.952;27.612;2023-04-21T18:26:41;4.6;4.1;3.4
53698;PMS7003;68408;53.952;27.612;2023-04-21T18:31:51;5.4;4.3;3.5
53698;PMS7003;68408;53.952;27.612;2023-04-21T18:36:03;4.9;4;3.1
53698;PMS7003;68408;53.952;27.612;2023-04-21T18:41:51;4.8;4.5;3.6
53698;PMS7003;68408;53.952;27.612;2023-04-21T18:46:17;5.8;4.9;4
53698;PMS7003;68408;53.952;27.612;2023-04-21T18:51:35;5.9;5;4.1
53698;PMS7003;68408;53.952;27.612;2023-04-21T18:56:03;6.5;5.3;4.4
53698;PMS7003;68408;53.952;27.612;2023-04-21T19:01:05;6;4.9;4
53698;PMS7003;68408;53.952;27.612;2023-04-21T19:06:49;5;4.1;3.3
53698;PMS7003;68408;53.952;27.612;2023-04-21T19:11:49;5.1;4.4;3.7
53698;PMS7003;68408;53.952;27.612;2023-04-21T19:16:35;4.8;4.5;3.9
53698;PMS7003;68408;53.952;27.612;2023-04-21T19:21:49;5.7;5;4.4
53698;PMS7003;68408;53.952;27.612;2023-04-21T19:26:05;6.2;5.2;4.4
53698;PMS7003;68408;53.952;27.612;2023-04-21T19:31:15;6.7;5.8;4.8
53698;PMS7003;68408;53.952;27.612;2023-04-21T19:36:23;6.2;4.9;4.2
53698;PMS7003;68408;53.952;27.612;2023-04-21T19:41:49;6.6;5.8;4.5
53698;PMS7003;68408;53.952;27.612;2023-04-21T19:46:27;5.2;4.7;3.8
53698;PMS7003;68408;53.952;27.612;2023-04-21T19:51:35;6.3;5.1;4.3
53698;PMS7003;68408;53.952;27.612;2023-04-21T19:56:35;7;5.8;4.7
53698;PMS7003;68408;53.952;27.612;2023-04-21T20:01:23;6.2;5.2;4.6
53698;PMS7003;68408;53.952;27.612;2023-04-21T20:06:13;7.5;6.2;4.8
53698;PMS7003;68408;53.952;27.612;2023-04-21T20:11:15;6.9;5.6;4.7
53698;PMS7003;68408;53.952;27.612;2023-04-21T20:16:15;7.5;6.3;5.4
53698;PMS7003;68408;53.952;27.612;2023-04-21T20:21:37;6.7;5.6;4.6
53698;PMS7003;68408;53.952;27.612;2023-04-21T20:26:23;7;5.1;4.3
53698;PMS7003;68408;53.952;27.612;2023-04-21T20:31:03;6.2;5.3;4.5
53698;PMS7003;68408;53.952;27.612;2023-04-21T20:36:33;5;4.5;3.5
53698;PMS7003;68408;53.952;27.612;2023-04-21T20:41:47;5.7;4.5;3.7
53698;PMS7003;68408;53.952;27.612;2023-04-21T20:46:23;5.1;5.1;4.1
53698;PMS7003;68408;53.952;27.612;2023-04-21T20:51:15;4.9;4.3;3.4
53698;PMS7003;68408;53.952;27.612;2023-04-21T20:56:03;5.7;4.5;3.3
53698;PMS7003;68408;53.952;27.612;2023-04-21T21:01:47;5.6;4.4;3.8
53698;PMS7003;68408;53.952;27.612;2023-04-21T21:06:03;6.1;5.1;4.4
53698;PMS7003;68408;53.952;27.612;2023-04-21T21:11:09;6;5.1;4.1
53698;PMS7003;68408;53.952;27.612;2023-04-21T21:16:47;5.3;4.7;4
53698;PMS7003;68408;53.952;27.612;2023-04-21T21:21:27;6;5.3;4.3
53698;PMS7003;68408;53.952;27.612;2023-04-21T21:26:11;5;4.1;3.2
53698;PMS7003;68408;53.952;27.612;2023-04-21T21:31:23;5.4;4.5;3.7
53698;PMS7003;68408;53.952;27.612;2023-04-21T21:36:47;4.7;4.5;3.5
53698;PMS7003;68408;53.952;27.612;2023-04-21T21:41:15;4.6;4.4;3.6
53698;PMS7003;68408;53.952;27.612;2023-04-21T21:46:31;4.8;4;3.2
53698;PMS7003;68408;53.952;27.612;2023-04-21T21:51:47;5.6;5.2;4.4
53698;PMS7003;68408;53.952;27.612;2023-04-21T21:56:13;6.2;5.7;4.3
53698;PMS7003;68408;53.952;27.612;2023-04-21T22:01:25;5.5;4.4;3.7
53698;PMS7003;68408;53.952;27.612;2023-04-21T22:06:35;5.1;4.4;3.7
53698;PMS7003;68408;53.952;27.612;2023-04-21T22:11:33;5.9;5.1;3.9
53698;PMS7003;68408;53.952;27.612;2023-04-21T22:16:39;5.3;4.6;3.9
53698;PMS7003;68408;53.952;27.612;2023-04-21T22:21:27;5.2;4.7;3.9
53698;PMS7003;68408;53.952;27.612;2023-04-21T22:26:39;6.4;4.8;4
53698;PMS7003;68408;53.952;27.612;2023-04-21T22:31:47;5.2;4.8;3.9
53698;PMS7003;68408;53.952;27.612;2023-04-21T22:36:15;5.5;4.7;3.8
53698;PMS7003;68408;53.952;27.612;2023-04-21T22:41:35;4.3;4;3.2
53698;PMS7003;68408;53.952;27.612;2023-04-21T22:46:47;4.9;4.2;3.3
53698;PMS7003;68408;53.952;27.612;2023-04-21T22:51:13;4.5;3.8;3.1
53698;PMS7003;68408;53.952;27.612;2023-04-21T22:56:28;4;4;3.4
53698;PMS7003;68408;53.952;27.612;2023-04-21T23:01:33;4.4;3.8;3.3
53698;PMS7003;68408;53.952;27.612;2023-04-21T23:06:03;6;4.9;3.8
53698;PMS7003;68408;53.952;27.612;2023-04-21T23:11:33;5.1;4.9;3.9
53698;PMS7003;68408;53.952;27.612;2023-04-21T23:16:15;7;5.8;4.8
53698;PMS7003;68408;53.952;27.612;2023-04-21T23:21:03;5.6;4.8;3.9
53698;PMS7003;68408;53.952;27.612;2023-04-21T23:26:39;4.9;4.1;3.5
53698;PMS7003;68408;53.952;27.612;2023-04-21T23:31:47;4;3.5;2.8
53698;PMS7003;68408;53.952;27.612;2023-04-21T23:36:27;4.4;3.5;3
53698;PMS7003;68408;53.952;27.612;2023-04-21T23:41:33;3.6;3.2;2.7
53698;PMS7003;68408;53.952;27.612;2023-04-21T23:46:39;5.1;4.3;3.5
53698;PMS7003;68408;53.952;27.612;2023-04-21T23:51:36;4.6;4;3
53698;PMS7003;68408;53.952;27.612;2023-04-21T23:56:13;5.3;4.1;3.5
